createdAt,value
2023-05-24T00:19:59.908Z,433.00
2023-05-24T00:20:59.892Z,432.00
2023-05-24T00:21:59.871Z,430.00
2023-05-24T00:22:59.863Z,431.00
2023-05-24T00:24:00.087Z,431.00
2023-05-24T00:24:59.862Z,432.00
2023-05-24T00:25:59.847Z,433.00
2023-05-24T00:26:59.847Z,435.00
2023-05-24T00:27:59.844Z,435.00
2023-05-24T00:29:00.109Z,435.00
2023-05-24T00:29:59.816Z,433.00
2023-05-24T00:30:59.822Z,432.00
2023-05-24T00:31:59.853Z,431.00
2023-05-24T00:32:59.861Z,432.00
2023-05-24T00:34:00.072Z,431.00
2023-05-24T00:34:59.777Z,429.00
2023-05-24T00:35:59.787Z,433.00
2023-05-24T00:36:59.770Z,435.00
2023-05-24T00:37:59.770Z,435.00
2023-05-24T00:38:59.789Z,436.00
2023-05-24T00:39:59.748Z,437.00
2023-05-24T00:40:59.736Z,438.00
2023-05-24T00:41:59.731Z,436.00
2023-05-24T00:42:59.731Z,436.00
2023-05-24T00:43:59.726Z,438.00
2023-05-24T00:44:59.727Z,441.00
2023-05-24T00:45:59.774Z,439.00
2023-05-24T00:46:59.701Z,438.00
2023-05-24T00:47:59.733Z,437.00
2023-05-24T00:48:59.687Z,441.00
2023-05-24T00:49:59.696Z,442.00
2023-05-24T00:50:59.669Z,443.00
2023-05-24T00:51:59.679Z,442.00
2023-05-24T00:52:59.679Z,440.00
2023-05-24T00:53:59.650Z,440.00
2023-05-24T00:54:59.646Z,442.00
2023-05-24T00:55:59.646Z,443.00
2023-05-24T00:56:59.627Z,444.00
2023-05-24T00:57:59.646Z,440.00
2023-05-24T00:58:59.616Z,438.00
2023-05-24T00:59:59.613Z,437.00
2023-05-24T01:00:59.610Z,438.00
2023-05-24T01:01:59.699Z,438.00
2023-05-24T01:02:59.668Z,439.00
2023-05-24T01:03:59.814Z,441.00
2023-05-24T01:04:59.567Z,442.00
2023-05-24T01:05:59.556Z,443.00
2023-05-24T01:06:59.551Z,442.00
2023-05-24T01:07:59.558Z,442.00
2023-05-24T01:08:59.545Z,443.00
2023-05-24T01:09:59.558Z,443.00
2023-05-24T01:10:59.529Z,442.00
2023-05-24T01:11:59.536Z,443.00
2023-05-24T01:12:59.526Z,446.00
2023-05-24T01:13:59.513Z,445.00
2023-05-24T01:14:59.521Z,445.00
2023-05-24T01:15:59.528Z,446.00
2023-05-24T01:16:59.488Z,448.00
2023-05-24T01:17:59.521Z,449.00
2023-05-24T01:18:59.480Z,451.00
2023-05-24T01:19:59.496Z,451.00
2023-05-24T01:20:59.461Z,450.00
2023-05-24T01:21:59.448Z,452.00
2023-05-24T01:22:59.444Z,452.00
2023-05-24T01:23:59.435Z,451.00
2023-05-24T01:24:59.441Z,451.00
2023-05-24T01:25:59.425Z,448.00
2023-05-24T01:26:59.418Z,445.00
2023-05-24T01:27:59.424Z,447.00
2023-05-24T01:28:59.411Z,447.00
2023-05-24T01:29:59.456Z,444.00
2023-05-24T01:30:59.434Z,444.00
2023-05-24T01:31:59.370Z,442.00
2023-05-24T01:32:59.403Z,441.00
2023-05-24T01:33:59.372Z,443.00
2023-05-24T01:34:59.381Z,442.00
2023-05-24T01:35:59.371Z,442.00
2023-05-24T01:36:59.369Z,443.00
2023-05-24T01:37:59.339Z,444.00
2023-05-24T01:38:59.331Z,442.00
2023-05-24T01:39:59.338Z,440.00
2023-05-24T01:40:59.344Z,441.00
2023-05-24T01:41:59.306Z,440.00
2023-05-24T01:42:59.302Z,437.00
2023-05-24T01:43:59.309Z,436.00
2023-05-24T01:44:59.300Z,436.00
2023-05-24T01:45:59.309Z,437.00
2023-05-24T01:46:59.329Z,438.00
2023-05-24T01:47:59.385Z,439.00
2023-05-24T01:48:59.287Z,439.00
2023-05-24T01:49:59.285Z,438.00
2023-05-24T01:50:59.265Z,437.00
2023-05-24T01:51:59.363Z,439.00
2023-05-24T01:52:59.284Z,444.00
2023-05-24T01:53:59.317Z,446.00
2023-05-24T01:54:59.317Z,444.00
2023-05-24T01:55:59.349Z,446.00
2023-05-24T01:56:59.355Z,443.00
2023-05-24T01:57:59.382Z,441.00
2023-05-24T01:58:59.396Z,442.00
2023-05-24T01:59:59.405Z,445.00
2023-05-24T02:00:59.456Z,447.00
2023-05-24T02:01:59.440Z,446.00
2023-05-24T02:02:59.546Z,448.00
2023-05-24T02:03:59.441Z,449.00
2023-05-24T02:04:59.458Z,447.00
2023-05-24T02:05:59.470Z,444.00
2023-05-24T02:06:59.478Z,442.00
2023-05-24T02:07:59.509Z,441.00
2023-05-24T02:08:59.516Z,441.00
2023-05-24T02:09:59.511Z,440.00
2023-05-24T02:10:59.539Z,443.00
2023-05-24T02:11:59.546Z,445.00
2023-05-24T02:12:59.638Z,443.00
2023-05-24T02:13:59.603Z,441.00
2023-05-24T02:14:59.589Z,435.00
2023-05-24T02:15:59.619Z,431.00
2023-05-24T02:16:59.669Z,430.00
2023-05-24T02:17:59.694Z,429.00
2023-05-24T02:18:59.663Z,430.00
2023-05-24T02:19:59.737Z,432.00
2023-05-24T02:20:59.701Z,436.00
2023-05-24T02:21:59.701Z,438.00
2023-05-24T02:22:59.718Z,437.00
2023-05-24T02:23:59.733Z,437.00
2023-05-24T02:24:59.738Z,440.00
2023-05-24T02:25:59.779Z,442.00
2023-05-24T02:26:59.773Z,445.00
2023-05-24T02:27:59.805Z,446.00
2023-05-24T02:28:59.810Z,444.00
2023-05-24T02:29:59.817Z,443.00
2023-05-24T02:30:59.855Z,442.00
2023-05-24T02:31:59.853Z,441.00
2023-05-24T02:32:59.944Z,439.00
2023-05-24T02:33:59.891Z,438.00
2023-05-24T02:34:59.910Z,438.00
2023-05-24T02:35:59.927Z,438.00
2023-05-24T02:36:59.935Z,438.00
2023-05-24T02:37:59.973Z,436.00
2023-05-24T02:38:59.976Z,436.00
2023-05-24T02:39:59.992Z,437.00
2023-05-24T02:41:00.008Z,439.00
2023-05-24T02:42:00.104Z,440.00
2023-05-24T02:43:00.060Z,442.00
2023-05-24T02:44:00.101Z,441.00
2023-05-24T02:45:00.114Z,443.00
2023-05-24T02:46:00.152Z,445.00
2023-05-24T02:47:00.154Z,443.00
2023-05-24T02:48:00.340Z,442.00
2023-05-24T02:49:00.232Z,442.00
2023-05-24T02:50:00.216Z,442.00
2023-05-24T02:51:00.216Z,440.00
2023-05-24T02:52:00.248Z,441.00
2023-05-24T02:53:00.262Z,439.00
2023-05-24T02:54:00.272Z,438.00
2023-05-24T02:55:00.299Z,440.00
2023-05-24T02:56:00.305Z,439.00
2023-05-24T02:57:00.330Z,437.00
2023-05-24T02:58:00.344Z,436.00
2023-05-24T02:59:00.371Z,433.00
2023-05-24T03:00:00.390Z,432.00
2023-05-24T03:01:00.410Z,432.00
2023-05-24T03:02:00.471Z,434.00
2023-05-24T03:03:00.531Z,435.00
2023-05-24T03:04:00.595Z,436.00
2023-05-24T03:05:00.499Z,433.00
2023-05-24T03:06:00.538Z,431.00
2023-05-24T03:07:00.520Z,432.00
2023-05-24T03:08:00.555Z,434.00
2023-05-24T03:09:00.580Z,436.00
2023-05-24T03:10:00.632Z,437.00
2023-05-24T03:11:00.626Z,436.00
2023-05-24T03:12:00.628Z,433.00
2023-05-24T03:13:00.656Z,430.00
2023-05-24T03:14:00.658Z,430.00
2023-05-24T03:15:00.678Z,432.00
2023-05-24T03:16:00.805Z,431.00
2023-05-24T03:17:00.713Z,434.00
2023-05-24T03:18:00.770Z,435.00
2023-05-24T03:19:00.740Z,434.00
2023-05-24T03:20:00.779Z,434.00
2023-05-24T03:21:00.805Z,434.00
2023-05-24T03:22:00.794Z,434.00
2023-05-24T03:23:00.816Z,435.00
2023-05-24T03:24:00.822Z,435.00
2023-05-24T03:25:00.856Z,435.00
2023-05-24T03:26:00.890Z,436.00
2023-05-24T03:27:00.891Z,435.00
2023-05-24T03:28:00.925Z,434.00
2023-05-24T03:29:00.962Z,436.00
2023-05-24T03:30:00.961Z,434.00
2023-05-24T03:31:01.015Z,435.00
2023-05-24T03:32:01.055Z,435.00
2023-05-24T03:33:01.071Z,437.00
2023-05-24T03:34:01.045Z,437.00
2023-05-24T03:35:01.053Z,436.00
2023-05-24T03:36:01.109Z,435.00
2023-05-24T03:37:01.089Z,432.00
2023-05-24T03:38:01.100Z,430.00
2023-05-24T03:39:01.123Z,430.00
2023-05-24T03:40:01.155Z,428.00
2023-05-24T03:41:01.170Z,430.00
2023-05-24T03:42:01.194Z,431.00
2023-05-24T03:43:03.008Z,431.00
2023-05-24T03:44:01.203Z,430.00
2023-05-24T03:45:01.196Z,431.00
2023-05-24T03:46:01.297Z,432.00
2023-05-24T03:47:01.177Z,436.00
2023-05-24T03:48:01.225Z,435.00
2023-05-24T03:49:01.176Z,436.00
2023-05-24T03:50:01.160Z,435.00
2023-05-24T03:51:01.151Z,437.00
2023-05-24T03:52:01.153Z,437.00
2023-05-24T03:53:01.155Z,440.00
2023-05-24T03:54:01.146Z,439.00
2023-05-24T03:55:01.119Z,440.00
2023-05-24T03:56:01.129Z,441.00
2023-05-24T03:57:01.120Z,440.00
2023-05-24T03:58:01.106Z,440.00
2023-05-24T03:59:01.118Z,440.00
2023-05-24T04:00:01.097Z,439.00
2023-05-24T04:01:01.111Z,438.00
2023-05-24T04:02:01.126Z,438.00
2023-05-24T04:03:01.170Z,438.00
2023-05-24T04:04:01.113Z,439.00
2023-05-24T04:05:01.062Z,438.00
2023-05-24T04:06:01.056Z,438.00
2023-05-24T04:07:01.065Z,437.00
2023-05-24T04:08:01.042Z,437.00
2023-05-24T04:09:01.032Z,437.00
2023-05-24T04:10:01.039Z,434.00
2023-05-24T04:11:01.034Z,434.00
2023-05-24T04:12:01.034Z,435.00
2023-05-24T04:13:00.999Z,434.00
2023-05-24T04:14:01.005Z,432.00
2023-05-24T04:15:00.997Z,431.00
2023-05-24T04:16:00.985Z,429.00
2023-05-24T04:17:01.143Z,431.00
2023-05-24T04:18:01.037Z,433.00
2023-05-24T04:19:01.062Z,436.00
2023-05-24T04:20:00.983Z,433.00
2023-05-24T04:21:00.951Z,433.00
2023-05-24T04:22:00.936Z,433.00
2023-05-24T04:23:00.948Z,432.00
2023-05-24T04:24:00.920Z,431.00
2023-05-24T04:25:00.943Z,432.00
2023-05-24T04:26:00.910Z,431.00
2023-05-24T04:27:00.923Z,429.00
2023-05-24T04:28:00.892Z,432.00
2023-05-24T04:29:00.896Z,432.00
2023-05-24T04:30:00.888Z,432.00
2023-05-24T04:31:00.930Z,429.00
2023-05-24T04:32:00.887Z,430.00
2023-05-24T04:33:00.919Z,433.00
2023-05-24T04:34:00.850Z,434.00
2023-05-24T04:35:00.835Z,435.00
2023-05-24T04:36:00.842Z,437.00
2023-05-24T04:37:00.836Z,439.00
2023-05-24T04:38:00.850Z,439.00
2023-05-24T04:39:00.822Z,438.00
2023-05-24T04:40:00.817Z,440.00
2023-05-24T04:41:00.813Z,440.00
2023-05-24T04:42:00.819Z,440.00
2023-05-24T04:43:00.792Z,440.00
2023-05-24T04:44:00.790Z,443.00
2023-05-24T04:45:00.797Z,444.00
2023-05-24T04:46:00.768Z,444.00
2023-05-24T04:47:00.822Z,442.00
2023-05-24T04:48:00.866Z,441.00
2023-05-24T04:49:00.745Z,442.00
2023-05-24T04:50:00.745Z,443.00
2023-05-24T04:51:00.723Z,442.00
2023-05-24T04:52:00.729Z,442.00
2023-05-24T04:53:00.713Z,444.00
2023-05-24T04:54:00.715Z,447.00
2023-05-24T04:55:00.731Z,449.00
2023-05-24T04:56:00.689Z,447.00
2023-05-24T04:57:00.701Z,446.00
2023-05-24T04:58:00.797Z,445.00
2023-05-24T04:59:00.673Z,447.00
2023-05-24T05:00:00.688Z,448.00
2023-05-24T05:01:00.665Z,445.00
2023-05-24T05:02:00.776Z,445.00
2023-05-24T05:03:00.741Z,446.00
2023-05-24T05:04:00.737Z,448.00
2023-05-24T05:05:00.629Z,447.00
2023-05-24T05:06:00.630Z,445.00
2023-05-24T05:07:00.613Z,440.00
2023-05-24T05:08:00.619Z,441.00
2023-05-24T05:09:00.598Z,441.00
2023-05-24T05:10:00.601Z,440.00
2023-05-24T05:11:00.584Z,441.00
2023-05-24T05:12:00.604Z,440.00
2023-05-24T05:13:00.604Z,438.00
2023-05-24T05:14:00.634Z,440.00
2023-05-24T05:15:00.663Z,443.00
2023-05-24T05:16:00.664Z,443.00
2023-05-24T05:17:00.687Z,444.00
2023-05-24T05:18:00.755Z,444.00
2023-05-24T05:19:00.724Z,444.00
2023-05-24T05:20:00.787Z,441.00
2023-05-24T05:21:00.789Z,441.00
2023-05-24T05:22:00.813Z,441.00
2023-05-24T05:23:00.803Z,440.00
2023-05-24T05:24:00.838Z,438.00
2023-05-24T05:25:00.860Z,440.00
2023-05-24T05:26:00.868Z,438.00
2023-05-24T05:27:00.873Z,440.00
2023-05-24T05:28:00.921Z,441.00
2023-05-24T05:29:00.999Z,443.00
2023-05-24T05:30:00.922Z,440.00
2023-05-24T05:31:01.012Z,440.00
2023-05-24T05:32:01.012Z,441.00
2023-05-24T05:33:01.098Z,441.00
2023-05-24T05:34:01.048Z,442.00
2023-05-24T05:35:01.119Z,461.00
2023-05-24T05:36:01.270Z,495.00
2023-05-24T05:37:01.115Z,548.00
2023-05-24T05:38:01.160Z,669.00
2023-05-24T05:39:01.131Z,694.00
2023-05-24T05:40:01.235Z,780.00
2023-05-24T05:41:01.231Z,825.00
2023-05-24T05:42:01.184Z,931.00
2023-05-24T05:43:01.204Z,907.00
2023-05-24T05:44:01.208Z,890.00
2023-05-24T05:45:01.263Z,875.00
2023-05-24T05:46:01.254Z,874.00
2023-05-24T05:47:01.231Z,874.00
2023-05-24T05:48:01.262Z,860.00
2023-05-24T05:49:01.240Z,851.00
2023-05-24T05:50:01.249Z,828.00
2023-05-24T05:51:01.288Z,816.00
2023-05-24T05:52:01.253Z,798.00
2023-05-24T05:53:01.281Z,782.00
2023-05-24T05:54:01.260Z,771.00
2023-05-24T05:55:01.269Z,762.00
2023-05-24T05:56:02.251Z,755.00
2023-05-24T05:57:01.716Z,751.00
2023-05-24T05:58:01.362Z,742.00
2023-05-24T05:59:01.306Z,736.00
2023-05-24T06:00:01.360Z,729.00
2023-05-24T06:01:01.401Z,722.00
2023-05-24T06:02:01.385Z,717.00
2023-05-24T06:03:01.397Z,712.00
2023-05-24T06:04:01.423Z,708.00
2023-05-24T06:05:01.435Z,706.00
2023-05-24T06:06:01.418Z,701.00
2023-05-24T06:07:01.485Z,698.00
2023-05-24T06:08:01.435Z,694.00
2023-05-24T06:09:01.453Z,689.00
2023-05-24T06:10:01.491Z,685.00
2023-05-24T06:11:01.495Z,677.00
2023-05-24T06:12:01.555Z,671.00
2023-05-24T06:13:01.640Z,666.00
2023-05-24T06:14:01.590Z,664.00
2023-05-24T06:15:01.603Z,657.00
2023-05-24T06:16:01.752Z,653.00
2023-05-24T06:17:01.633Z,647.00
2023-05-24T06:18:01.727Z,641.00
2023-05-24T06:19:06.376Z,636.00
2023-05-24T06:20:02.706Z,631.00
2023-05-24T06:21:01.680Z,628.00
2023-05-24T06:22:01.744Z,626.00
2023-05-24T06:23:01.659Z,626.00
2023-05-24T06:24:01.658Z,622.00
2023-05-24T06:25:01.670Z,615.00
2023-05-24T06:26:01.718Z,610.00
2023-05-24T06:27:03.259Z,606.00
2023-05-24T06:28:01.614Z,600.00
2023-05-24T06:29:01.619Z,595.00
2023-05-24T06:30:01.705Z,589.00
2023-05-24T06:31:01.634Z,586.00
2023-05-24T06:32:01.620Z,586.00
2023-05-24T06:33:01.689Z,585.00
2023-05-24T06:34:04.233Z,583.00
2023-05-24T06:35:01.575Z,580.00
2023-05-24T06:36:01.666Z,667.00
2023-05-24T06:37:01.557Z,738.00
2023-05-24T06:38:01.558Z,732.00
2023-05-24T06:39:01.582Z,818.00
2023-05-24T06:40:01.575Z,897.00
2023-05-24T06:41:01.584Z,877.00
2023-05-24T06:42:01.550Z,893.00
2023-05-24T06:43:01.540Z,919.00
2023-05-24T06:44:01.522Z,945.00
2023-05-24T06:45:01.571Z,966.00
2023-05-24T06:46:01.741Z,987.00
2023-05-24T06:47:01.537Z,1038.00
2023-05-24T06:48:01.649Z,1047.00
2023-05-24T06:49:01.595Z,1061.00
2023-05-24T06:50:01.576Z,1074.00
2023-05-24T06:51:01.737Z,1085.00
2023-05-24T06:52:01.762Z,1094.00
2023-05-24T06:53:01.470Z,1115.00
2023-05-24T06:54:01.458Z,1138.00
2023-05-24T06:55:01.479Z,1194.00
2023-05-24T06:56:01.443Z,1212.00
2023-05-24T06:57:01.490Z,1221.00
2023-05-24T06:58:01.456Z,1238.00
2023-05-24T06:59:01.471Z,1254.00
2023-05-24T07:00:01.607Z,1270.00
2023-05-24T07:01:01.463Z,1289.00
2023-05-24T07:02:03.683Z,1310.00
2023-05-24T07:03:01.450Z,1323.00
2023-05-24T07:04:01.477Z,1336.00
2023-05-24T07:05:01.439Z,1334.00
2023-05-24T07:06:01.406Z,1347.00
2023-05-24T07:07:01.417Z,1354.00
2023-05-24T07:08:01.396Z,1347.00
2023-05-24T07:09:01.375Z,1219.00
2023-05-24T07:10:01.377Z,1085.00
2023-05-24T07:11:01.382Z,1077.00
2023-05-24T07:12:01.358Z,1088.00
2023-05-24T07:13:01.347Z,1108.00
2023-05-24T07:14:01.371Z,1133.00
2023-05-24T07:15:01.336Z,1153.00
2023-05-24T07:16:01.395Z,1165.00
2023-05-24T07:17:01.401Z,1172.00
2023-05-24T07:18:01.369Z,1174.00
2023-05-24T07:19:03.976Z,1186.00
2023-05-24T07:20:01.476Z,1189.00
2023-05-24T07:21:01.447Z,1187.00
2023-05-24T07:22:01.293Z,1188.00
2023-05-24T07:23:01.283Z,1200.00
2023-05-24T07:24:01.304Z,1210.00
2023-05-24T07:25:01.328Z,1219.00
2023-05-24T07:26:01.266Z,1223.00
2023-05-24T07:27:01.275Z,1227.00
2023-05-24T07:28:01.236Z,1231.00
2023-05-24T07:29:01.250Z,1232.00
2023-05-24T07:30:01.294Z,1231.00
2023-05-24T07:31:01.223Z,1237.00
2023-05-24T07:32:01.397Z,1238.00
2023-05-24T07:33:01.665Z,1236.00
2023-05-24T07:34:01.236Z,1234.00
2023-05-24T07:35:01.197Z,1245.00
2023-05-24T07:36:01.186Z,1261.00
2023-05-24T07:37:01.208Z,1257.00
2023-05-24T07:38:01.238Z,1256.00
2023-05-24T07:39:01.240Z,1273.00
2023-05-24T07:40:01.159Z,1281.00
2023-05-24T07:41:01.157Z,1280.00
2023-05-24T07:42:01.157Z,1293.00
2023-05-24T07:43:01.600Z,1294.00
2023-05-24T07:44:01.158Z,1352.00
2023-05-24T07:45:01.131Z,1355.00
2023-05-24T07:46:01.137Z,1339.00
2023-05-24T07:47:01.106Z,1331.00
2023-05-24T07:48:01.175Z,1328.00
2023-05-24T07:49:01.120Z,1335.00
2023-05-24T07:50:01.090Z,1334.00
2023-05-24T07:51:01.090Z,1328.00
2023-05-24T07:52:01.093Z,1324.00
2023-05-24T07:53:01.160Z,1328.00
2023-05-24T07:54:01.240Z,1335.00
2023-05-24T07:55:01.072Z,1341.00
2023-05-24T07:56:01.095Z,1352.00
2023-05-24T07:57:01.049Z,1358.00
2023-05-24T07:58:01.082Z,1365.00
2023-05-24T07:59:01.041Z,1372.00
2023-05-24T08:00:01.033Z,1380.00
2023-05-24T08:01:01.042Z,1384.00
2023-05-24T08:02:01.026Z,1388.00
2023-05-24T08:03:01.133Z,1388.00
2023-05-24T08:04:01.160Z,1390.00
2023-05-24T08:05:00.996Z,1386.00
2023-05-24T08:06:00.987Z,1390.00
2023-05-24T08:07:01.003Z,1389.00
2023-05-24T08:08:00.973Z,1389.00
2023-05-24T08:09:00.966Z,1391.00
2023-05-24T08:10:00.961Z,1389.00
2023-05-24T08:11:00.967Z,1390.00
2023-05-24T08:12:01.029Z,1384.00
2023-05-24T08:13:01.073Z,1382.00
2023-05-24T08:14:01.051Z,1383.00
2023-05-24T08:15:01.105Z,1383.00
2023-05-24T08:16:01.163Z,1382.00
2023-05-24T08:17:01.214Z,1383.00
2023-05-24T08:18:01.285Z,1389.00
2023-05-24T08:19:01.287Z,1396.00
2023-05-24T08:20:01.584Z,1404.00
2023-05-24T08:21:01.419Z,1415.00
2023-05-24T08:22:01.466Z,1427.00
2023-05-24T08:23:01.515Z,1428.00
2023-05-24T08:24:01.570Z,1437.00
2023-05-24T08:25:01.662Z,1447.00
2023-05-24T08:26:01.717Z,1445.00
2023-05-24T08:27:01.754Z,1439.00
2023-05-24T08:28:01.870Z,1199.00
2023-05-24T08:29:01.872Z,881.00
2023-05-24T08:30:01.994Z,823.00
2023-05-24T08:31:01.996Z,778.00
2023-05-24T08:32:02.383Z,696.00
2023-05-24T08:33:02.110Z,671.00
2023-05-24T08:34:02.059Z,608.00
2023-05-24T08:35:17.503Z,593.00
2023-05-24T08:36:03.074Z,575.00
2023-05-24T08:37:02.000Z,564.00
2023-05-24T08:38:02.066Z,533.00
2023-05-24T08:39:01.976Z,521.00
2023-05-24T08:40:01.962Z,518.00
2023-05-24T08:41:02.029Z,512.00
2023-05-24T08:43:01.966Z,582.00
2023-05-24T08:44:01.948Z,642.00
2023-05-24T08:45:01.933Z,748.00
2023-05-24T08:46:02.838Z,799.00
2023-05-24T08:47:01.951Z,894.00
2023-05-24T08:48:01.989Z,912.00
2023-05-24T08:49:01.960Z,928.00
2023-05-24T08:50:01.903Z,953.00
2023-05-24T08:51:02.345Z,991.00
2023-05-24T08:52:02.316Z,994.00
2023-05-24T08:53:01.907Z,999.00
2023-05-24T08:54:01.934Z,1010.00
2023-05-24T08:55:01.887Z,1010.00
2023-05-24T08:56:02.369Z,1007.00
2023-05-24T08:57:01.911Z,1008.00
2023-05-24T08:58:01.904Z,1007.00
2023-05-24T08:59:01.976Z,1002.00
2023-05-24T09:00:01.924Z,989.00
2023-05-24T09:01:01.871Z,982.00
2023-05-24T09:02:01.888Z,962.00
2023-05-24T09:03:01.844Z,917.00
2023-05-24T09:04:01.853Z,891.00
2023-05-24T09:05:01.812Z,886.00
2023-05-24T09:06:01.907Z,882.00
2023-05-24T09:07:01.793Z,881.00
2023-05-24T09:08:01.814Z,879.00
2023-05-24T09:09:01.782Z,874.00
2023-05-24T09:10:01.789Z,848.00
2023-05-24T09:11:01.894Z,818.00
2023-05-24T09:12:01.777Z,822.00
2023-05-24T09:13:01.820Z,818.00
2023-05-24T09:14:01.806Z,812.00
2023-05-24T09:15:01.778Z,803.00
2023-05-24T09:16:01.787Z,794.00
2023-05-24T09:17:01.756Z,787.00
2023-05-24T09:18:01.782Z,778.00
2023-05-24T09:19:01.787Z,762.00
2023-05-24T09:20:01.778Z,758.00
2023-05-24T09:21:01.703Z,745.00
2023-05-24T09:22:01.699Z,733.00
2023-05-24T09:23:01.691Z,730.00
2023-05-24T09:24:01.685Z,722.00
2023-05-24T09:25:01.689Z,720.00
2023-05-24T09:26:01.662Z,697.00
2023-05-24T09:27:01.701Z,677.00
2023-05-24T09:28:01.794Z,681.00
2023-05-24T09:29:01.884Z,679.00
2023-05-24T09:30:01.895Z,681.00
2023-05-24T09:31:03.934Z,682.00
2023-05-24T09:32:02.002Z,684.00
2023-05-24T09:33:02.035Z,681.00
2023-05-24T09:34:01.949Z,682.00
2023-05-24T09:35:01.985Z,897.00
2023-05-24T09:36:01.965Z,838.00
2023-05-24T09:37:02.336Z,822.00
2023-05-24T09:38:01.971Z,812.00
2023-05-24T09:39:01.896Z,810.00
2023-05-24T09:40:01.986Z,805.00
2023-05-24T09:41:01.907Z,793.00
2023-05-24T09:42:01.910Z,783.00
2023-05-24T09:43:01.938Z,735.00
2023-05-24T09:44:01.863Z,723.00
2023-05-24T09:45:01.933Z,717.00
2023-05-24T09:46:01.859Z,677.00
2023-05-24T09:47:01.992Z,657.00
2023-05-24T09:48:01.915Z,625.00
2023-05-24T09:49:01.871Z,617.00
2023-05-24T09:50:01.848Z,616.00
2023-05-24T09:51:01.884Z,631.00
2023-05-24T09:52:02.476Z,642.00
2023-05-24T09:53:01.824Z,645.00
2023-05-24T09:54:01.823Z,649.00
2023-05-24T09:55:01.809Z,649.00
2023-05-24T09:56:02.077Z,645.00
2023-05-24T09:57:03.470Z,642.00
2023-05-24T09:58:01.795Z,634.00
2023-05-24T09:59:01.810Z,619.00
2023-05-24T10:00:01.913Z,594.00
2023-05-24T10:01:01.839Z,594.00
2023-05-24T10:02:01.851Z,594.00
2023-05-24T10:03:01.828Z,608.00
2023-05-24T10:04:01.869Z,625.00
2023-05-24T10:05:01.771Z,633.00
2023-05-24T10:06:01.730Z,624.00
2023-05-24T10:07:01.834Z,607.00
2023-05-24T10:08:01.725Z,597.00
2023-05-24T10:09:01.728Z,593.00
2023-05-24T10:10:01.735Z,611.00
2023-05-24T10:11:01.708Z,622.00
2023-05-24T10:12:01.859Z,632.00
2023-05-24T10:13:01.743Z,642.00
2023-05-24T10:14:01.721Z,647.00
2023-05-24T10:15:01.698Z,607.00
2023-05-24T10:16:01.690Z,597.00
2023-05-24T10:17:01.724Z,592.00
2023-05-24T10:18:01.896Z,597.00
2023-05-24T10:19:01.653Z,613.00
2023-05-24T10:20:01.701Z,630.00
2023-05-24T10:21:01.922Z,631.00
2023-05-24T10:22:01.650Z,629.00
2023-05-24T10:23:01.988Z,629.00
2023-05-24T10:24:01.618Z,562.00
2023-05-24T10:25:01.616Z,575.00
2023-05-24T10:26:01.612Z,594.00
2023-05-24T10:27:01.837Z,602.00
2023-05-24T10:28:01.647Z,599.00
2023-05-24T10:29:01.600Z,613.00
2023-05-24T10:30:01.692Z,675.00
2023-05-24T10:31:01.742Z,694.00
2023-05-24T10:32:01.852Z,708.00
2023-05-24T10:33:01.586Z,762.00
2023-05-24T10:34:07.587Z,775.00
2023-05-24T10:35:02.572Z,776.00
2023-05-24T10:36:01.537Z,770.00
2023-05-24T10:37:02.334Z,764.00
2023-05-24T10:38:01.548Z,772.00
2023-05-24T10:39:01.577Z,783.00
2023-05-24T10:40:01.505Z,789.00
2023-05-24T10:41:01.586Z,788.00
2023-05-24T10:42:01.488Z,779.00
2023-05-24T10:43:01.497Z,729.00
2023-05-24T10:44:09.913Z,673.00
2023-05-24T10:45:02.474Z,665.00
2023-05-24T10:46:01.512Z,663.00
2023-05-24T10:47:01.462Z,667.00
2023-05-24T10:48:01.511Z,767.00
2023-05-24T10:49:01.452Z,779.00
2023-05-24T10:50:01.458Z,773.00
2023-05-24T10:51:01.423Z,775.00
2023-05-24T10:52:01.499Z,782.00
2023-05-24T10:53:01.423Z,786.00
2023-05-24T10:54:01.501Z,792.00
2023-05-24T10:55:04.416Z,800.00
2023-05-24T10:56:01.424Z,801.00
2023-05-24T10:57:01.413Z,802.00
2023-05-24T10:58:01.405Z,805.00
2023-05-24T10:59:01.407Z,819.00
2023-05-24T11:00:01.398Z,828.00
2023-05-24T11:01:01.386Z,839.00
2023-05-24T11:02:01.448Z,844.00
2023-05-24T11:03:01.489Z,847.00
2023-05-24T11:04:01.376Z,854.00
2023-05-24T11:05:01.399Z,862.00
2023-05-24T11:06:01.433Z,864.00
2023-05-24T11:07:01.364Z,865.00
2023-05-24T11:08:01.349Z,859.00
2023-05-24T11:09:01.363Z,861.00
2023-05-24T11:10:01.388Z,818.00
2023-05-24T11:11:11.468Z,832.00
2023-05-24T11:12:02.323Z,850.00
2023-05-24T11:13:01.340Z,868.00
2023-05-24T11:14:01.385Z,986.00
2023-05-24T11:15:01.297Z,969.00
2023-05-24T11:16:01.403Z,972.00
2023-05-24T11:17:01.303Z,1048.00
2023-05-24T11:18:01.379Z,1137.00
2023-05-24T11:19:01.253Z,1148.00
2023-05-24T11:20:01.325Z,1186.00
2023-05-24T11:21:01.306Z,1189.00
2023-05-24T11:41:51.817Z,1115.00
2023-05-24T11:42:51.718Z,1115.00
2023-05-24T11:43:51.702Z,1112.00
2023-05-24T11:44:51.699Z,1110.00
2023-05-24T11:45:51.720Z,1104.00
2023-05-24T11:46:51.710Z,1100.00
2023-05-24T11:47:51.710Z,1092.00
2023-05-24T11:48:51.678Z,1090.00
2023-05-24T11:49:51.662Z,1091.00
2023-05-24T11:50:52.058Z,1093.00
2023-05-24T11:53:10.961Z,1109.00
2023-05-24T11:54:10.969Z,1104.00
2023-05-24T11:55:11.045Z,1103.00
2023-05-24T11:56:11.128Z,1103.00
2023-05-24T11:57:11.254Z,1104.00
2023-05-24T11:58:11.254Z,1101.00
2023-05-24T11:59:11.318Z,1099.00
2023-05-24T12:00:11.523Z,1100.00
2023-05-24T12:01:11.458Z,1101.00
2023-05-24T12:02:11.538Z,1099.00
2023-05-24T12:03:11.612Z,1100.00
2023-05-24T12:04:12.135Z,1100.00
2023-05-24T12:05:11.655Z,1098.00
2023-05-24T12:06:11.701Z,1098.00
2023-05-24T12:07:11.762Z,1095.00
2023-05-24T12:08:12.703Z,1093.00
2023-05-24T12:09:11.896Z,1092.00
2023-05-24T12:10:11.932Z,1091.00
2023-05-24T12:11:11.994Z,1092.00
2023-05-24T12:12:12.075Z,1096.00
2023-05-24T12:13:12.135Z,1098.00
2023-05-24T12:14:12.179Z,1101.00
2023-05-24T12:15:12.252Z,1103.00
2023-05-24T12:16:12.367Z,1102.00
2023-05-24T12:17:12.367Z,1099.00
2023-05-24T12:18:12.451Z,1097.00
2023-05-24T12:19:23.869Z,1097.00
2023-05-24T12:20:13.538Z,1096.00
2023-05-24T12:21:12.441Z,1094.00
2023-05-24T12:22:12.437Z,1095.00
2023-05-24T12:23:12.434Z,1093.00
2023-05-24T12:24:12.476Z,1093.00
2023-05-24T12:25:12.418Z,1092.00
2023-05-24T12:26:12.409Z,1092.00
2023-05-24T12:27:12.405Z,1091.00
2023-05-24T12:28:12.433Z,1094.00
2023-05-24T12:29:12.497Z,1096.00
2023-05-24T12:30:12.550Z,1094.00
2023-05-24T12:31:12.665Z,1091.00
2023-05-24T12:32:13.868Z,1091.00
2023-05-24T12:33:12.760Z,1092.00
2023-05-24T12:34:12.770Z,1093.00
2023-05-24T12:35:12.820Z,1095.00
2023-05-24T12:36:12.866Z,1097.00
2023-05-24T12:37:13.780Z,1095.00
2023-05-24T12:38:12.970Z,1096.00
2023-05-24T12:39:13.020Z,1094.00
2023-05-24T12:40:13.054Z,1091.00
2023-05-24T12:41:14.146Z,1091.00
2023-05-24T12:42:13.248Z,1089.00
2023-05-24T12:43:13.186Z,1087.00
2023-05-24T12:44:13.229Z,1089.00
2023-05-24T12:45:13.338Z,1088.00
2023-05-24T12:46:13.339Z,1088.00
2023-05-24T12:47:13.467Z,1088.00
2023-05-24T12:48:13.431Z,1090.00
2023-05-24T12:49:13.427Z,1087.00
2023-05-24T12:50:13.445Z,1089.00
2023-05-24T12:51:13.471Z,1090.00
2023-05-24T12:52:13.520Z,1089.00
2023-05-24T12:53:13.552Z,1089.00
2023-05-24T12:54:13.556Z,1089.00
2023-05-24T12:55:13.598Z,1087.00
2023-05-24T12:56:13.623Z,1087.00
2023-05-24T12:57:13.660Z,1085.00
2023-05-24T12:58:13.713Z,1083.00
2023-05-24T12:59:13.736Z,1083.00
2023-05-24T13:00:13.786Z,1082.00
2023-05-24T13:01:13.920Z,1083.00
2023-05-24T13:02:13.873Z,1081.00
2023-05-24T13:03:13.919Z,1081.00
2023-05-24T13:04:13.926Z,1082.00